sensor_id;sensor_type;location;lat;lon;timestamp;P1;durP1;ratioP1;P2;durP2;ratioP2
32946;SDS011;54465;51.230;22.504;2023-05-10T00:02:44;4.20;;;2.70;;
32946;SDS011;54465;51.230;22.504;2023-05-10T00:07:45;5.57;;;2.70;;
32946;SDS011;54465;51.230;22.504;2023-05-10T00:12:46;4.13;;;2.85;;
32946;SDS011;54465;51.230;22.504;2023-05-10T00:17:46;4.03;;;2.65;;
32946;SDS011;54465;51.230;22.504;2023-05-10T00:22:47;4.93;;;2.10;;
32946;SDS011;54465;51.230;22.504;2023-05-10T00:27:47;3.85;;;2.88;;
32946;SDS011;54465;51.230;22.504;2023-05-10T00:32:48;4.65;;;2.63;;
32946;SDS011;54465;51.230;22.504;2023-05-10T00:37:49;4.40;;;2.90;;
32946;SDS011;54465;51.230;22.504;2023-05-10T00:42:50;3.53;;;2.25;;
32946;SDS011;54465;51.230;22.504;2023-05-10T00:47:51;3.83;;;2.90;;
32946;SDS011;54465;51.230;22.504;2023-05-10T00:52:55;3.03;;;2.30;;
32946;SDS011;54465;51.230;22.504;2023-05-10T00:57:56;5.05;;;2.63;;
32946;SDS011;54465;51.230;22.504;2023-05-10T01:02:56;3.10;;;2.13;;
32946;SDS011;54465;51.230;22.504;2023-05-10T01:07:57;4.88;;;2.42;;
32946;SDS011;54465;51.230;22.504;2023-05-10T01:12:57;4.93;;;2.55;;
32946;SDS011;54465;51.230;22.504;2023-05-10T01:17:59;2.88;;;2.22;;
32946;SDS011;54465;51.230;22.504;2023-05-10T01:23:04;3.58;;;2.28;;
32946;SDS011;54465;51.230;22.504;2023-05-10T01:49:54;4.30;;;2.00;;
32946;SDS011;54465;51.230;22.504;2023-05-10T01:55:03;4.43;;;2.30;;
32946;SDS011;54465;51.230;22.504;2023-05-10T02:00:06;3.80;;;2.15;;
32946;SDS011;54465;51.230;22.504;2023-05-10T02:05:16;3.53;;;2.15;;
32946;SDS011;54465;51.230;22.504;2023-05-10T02:10:18;4.30;;;2.08;;
32946;SDS011;54465;51.230;22.504;2023-05-10T02:15:22;2.70;;;1.85;;
32946;SDS011;54465;51.230;22.504;2023-05-10T02:20:23;3.40;;;1.80;;
32946;SDS011;54465;51.230;22.504;2023-05-10T02:25:24;3.05;;;2.22;;
32946;SDS011;54465;51.230;22.504;2023-05-10T02:30:25;5.60;;;2.10;;
32946;SDS011;54465;51.230;22.504;2023-05-10T02:35:26;4.07;;;2.92;;
32946;SDS011;54465;51.230;22.504;2023-05-10T02:40:27;3.42;;;2.03;;
32946;SDS011;54465;51.230;22.504;2023-05-10T02:45:30;4.22;;;2.33;;
32946;SDS011;54465;51.230;22.504;2023-05-10T02:50:32;5.57;;;2.10;;
32946;SDS011;54465;51.230;22.504;2023-05-10T02:55:35;4.03;;;2.25;;
32946;SDS011;54465;51.230;22.504;2023-05-10T03:00:37;4.03;;;1.77;;
32946;SDS011;54465;51.230;22.504;2023-05-10T03:05:37;3.22;;;2.30;;
32946;SDS011;54465;51.230;22.504;2023-05-10T03:10:41;4.43;;;2.00;;
32946;SDS011;54465;51.230;22.504;2023-05-10T03:16:06;2.95;;;1.80;;
32946;SDS011;54465;51.230;22.504;2023-05-10T03:21:10;5.03;;;2.13;;
32946;SDS011;54465;51.230;22.504;2023-05-10T03:26:22;7.65;;;2.90;;
32946;SDS011;54465;51.230;22.504;2023-05-10T03:31:28;3.47;;;2.00;;
32946;SDS011;54465;51.230;22.504;2023-05-10T03:36:29;2.90;;;2.10;;
32946;SDS011;54465;51.230;22.504;2023-05-10T03:41:30;4.25;;;2.60;;
32946;SDS011;54465;51.230;22.504;2023-05-10T03:46:30;3.75;;;2.30;;
32946;SDS011;54465;51.230;22.504;2023-05-10T03:51:32;3.42;;;2.10;;
32946;SDS011;54465;51.230;22.504;2023-05-10T03:56:33;5.60;;;2.42;;
32946;SDS011;54465;51.230;22.504;2023-05-10T04:01:34;6.50;;;2.42;;
32946;SDS011;54465;51.230;22.504;2023-05-10T04:06:35;5.40;;;2.67;;
32946;SDS011;54465;51.230;22.504;2023-05-10T04:11:35;4.22;;;2.42;;
32946;SDS011;54465;51.230;22.504;2023-05-10T04:16:36;7.32;;;2.97;;
32946;SDS011;54465;51.230;22.504;2023-05-10T04:21:36;4.63;;;2.65;;
32946;SDS011;54465;51.230;22.504;2023-05-10T04:26:37;6.40;;;2.85;;
32946;SDS011;54465;51.230;22.504;2023-05-10T04:31:37;4.50;;;2.90;;
32946;SDS011;54465;51.230;22.504;2023-05-10T04:36:38;3.85;;;2.75;;
32946;SDS011;54465;51.230;22.504;2023-05-10T04:41:39;5.00;;;2.80;;
32946;SDS011;54465;51.230;22.504;2023-05-10T04:46:39;7.18;;;3.22;;
32946;SDS011;54465;51.230;22.504;2023-05-10T04:51:40;4.45;;;2.58;;
32946;SDS011;54465;51.230;22.504;2023-05-10T04:56:40;4.95;;;2.67;;
32946;SDS011;54465;51.230;22.504;2023-05-10T05:01:41;3.95;;;2.42;;
32946;SDS011;54465;51.230;22.504;2023-05-10T05:06:41;5.00;;;2.47;;
32946;SDS011;54465;51.230;22.504;2023-05-10T05:11:41;3.15;;;2.45;;
32946;SDS011;54465;51.230;22.504;2023-05-10T05:16:42;7.15;;;2.30;;
32946;SDS011;54465;51.230;22.504;2023-05-10T05:21:42;4.50;;;2.67;;
32946;SDS011;54465;51.230;22.504;2023-05-10T05:26:43;3.90;;;2.40;;
32946;SDS011;54465;51.230;22.504;2023-05-10T05:31:43;4.72;;;2.05;;
32946;SDS011;54465;51.230;22.504;2023-05-10T05:36:44;5.35;;;2.55;;
32946;SDS011;54465;51.230;22.504;2023-05-10T05:41:45;5.30;;;2.53;;
32946;SDS011;54465;51.230;22.504;2023-05-10T05:46:46;4.25;;;2.65;;
32946;SDS011;54465;51.230;22.504;2023-05-10T05:51:47;5.28;;;2.28;;
32946;SDS011;54465;51.230;22.504;2023-05-10T05:56:49;6.25;;;2.40;;
32946;SDS011;54465;51.230;22.504;2023-05-10T06:01:50;3.45;;;2.20;;
32946;SDS011;54465;51.230;22.504;2023-05-10T06:06:51;4.18;;;2.55;;
32946;SDS011;54465;51.230;22.504;2023-05-10T06:11:51;3.95;;;2.08;;
32946;SDS011;54465;51.230;22.504;2023-05-10T06:16:52;4.30;;;2.20;;
32946;SDS011;54465;51.230;22.504;2023-05-10T06:21:52;6.38;;;2.20;;
32946;SDS011;54465;51.230;22.504;2023-05-10T06:26:53;3.72;;;2.22;;
32946;SDS011;54465;51.230;22.504;2023-05-10T06:31:53;3.33;;;2.05;;
32946;SDS011;54465;51.230;22.504;2023-05-10T06:36:54;4.28;;;2.10;;
32946;SDS011;54465;51.230;22.504;2023-05-10T06:41:55;5.72;;;2.83;;
32946;SDS011;54465;51.230;22.504;2023-05-10T06:46:55;8.57;;;2.38;;
32946;SDS011;54465;51.230;22.504;2023-05-10T06:51:56;3.33;;;1.70;;
32946;SDS011;54465;51.230;22.504;2023-05-10T06:56:56;5.22;;;1.60;;
32946;SDS011;54465;51.230;22.504;2023-05-10T07:01:57;3.92;;;2.38;;
32946;SDS011;54465;51.230;22.504;2023-05-10T07:06:57;2.75;;;1.63;;
32946;SDS011;54465;51.230;22.504;2023-05-10T07:11:58;4.20;;;1.52;;
32946;SDS011;54465;51.230;22.504;2023-05-10T07:16:58;5.00;;;1.92;;
32946;SDS011;54465;51.230;22.504;2023-05-10T07:21:59;1.88;;;1.65;;
32946;SDS011;54465;51.230;22.504;2023-05-10T07:26:59;3.33;;;1.55;;
32946;SDS011;54465;51.230;22.504;2023-05-10T07:32:00;6.82;;;1.45;;
32946;SDS011;54465;51.230;22.504;2023-05-10T07:37:00;4.95;;;1.63;;
32946;SDS011;54465;51.230;22.504;2023-05-10T07:42:01;8.13;;;2.25;;
32946;SDS011;54465;51.230;22.504;2023-05-10T07:47:03;5.30;;;1.63;;
32946;SDS011;54465;51.230;22.504;2023-05-10T07:52:03;4.53;;;1.52;;
32946;SDS011;54465;51.230;22.504;2023-05-10T07:57:04;5.55;;;1.20;;
32946;SDS011;54465;51.230;22.504;2023-05-10T08:02:04;3.13;;;1.80;;
32946;SDS011;54465;51.230;22.504;2023-05-10T08:07:05;7.32;;;1.80;;
32946;SDS011;54465;51.230;22.504;2023-05-10T08:12:06;4.07;;;1.60;;
32946;SDS011;54465;51.230;22.504;2023-05-10T08:17:06;4.20;;;1.33;;
32946;SDS011;54465;51.230;22.504;2023-05-10T08:22:07;5.28;;;1.70;;
32946;SDS011;54465;51.230;22.504;2023-05-10T08:27:07;3.22;;;1.20;;
32946;SDS011;54465;51.230;22.504;2023-05-10T08:32:08;2.40;;;1.40;;
32946;SDS011;54465;51.230;22.504;2023-05-10T08:37:09;2.40;;;1.20;;
32946;SDS011;54465;51.230;22.504;2023-05-10T08:42:13;4.63;;;1.70;;
32946;SDS011;54465;51.230;22.504;2023-05-10T08:47:17;5.03;;;1.50;;
32946;SDS011;54465;51.230;22.504;2023-05-10T08:52:18;5.18;;;1.48;;
32946;SDS011;54465;51.230;22.504;2023-05-10T08:57:18;3.53;;;1.60;;
32946;SDS011;54465;51.230;22.504;2023-05-10T09:02:19;3.20;;;1.20;;
32946;SDS011;54465;51.230;22.504;2023-05-10T09:07:21;5.75;;;1.30;;
32946;SDS011;54465;51.230;22.504;2023-05-10T09:12:22;3.63;;;1.15;;
32946;SDS011;54465;51.230;22.504;2023-05-10T09:17:23;4.47;;;1.42;;
32946;SDS011;54465;51.230;22.504;2023-05-10T09:22:24;2.70;;;1.00;;
32946;SDS011;54465;51.230;22.504;2023-05-10T09:27:27;2.38;;;1.35;;
32946;SDS011;54465;51.230;22.504;2023-05-10T09:32:35;2.10;;;1.05;;
32946;SDS011;54465;51.230;22.504;2023-05-10T09:37:44;2.50;;;1.00;;
32946;SDS011;54465;51.230;22.504;2023-05-10T09:42:56;3.65;;;1.50;;
32946;SDS011;54465;51.230;22.504;2023-05-10T09:47:58;5.35;;;1.27;;
32946;SDS011;54465;51.230;22.504;2023-05-10T09:53:00;4.60;;;1.10;;
32946;SDS011;54465;51.230;22.504;2023-05-10T09:58:03;3.78;;;1.60;;
32946;SDS011;54465;51.230;22.504;2023-05-10T10:03:04;1.95;;;1.13;;
32946;SDS011;54465;51.230;22.504;2023-05-10T10:08:05;2.30;;;1.92;;
32946;SDS011;54465;51.230;22.504;2023-05-10T10:13:07;1.45;;;0.90;;
32946;SDS011;54465;51.230;22.504;2023-05-10T10:18:08;1.98;;;1.10;;
32946;SDS011;54465;51.230;22.504;2023-05-10T10:23:13;3.33;;;1.70;;
32946;SDS011;54465;51.230;22.504;2023-05-10T10:43:47;4.38;;;1.50;;
32946;SDS011;54465;51.230;22.504;2023-05-10T10:48:50;3.95;;;1.55;;
32946;SDS011;54465;51.230;22.504;2023-05-10T10:54:08;2.47;;;1.63;;
32946;SDS011;54465;51.230;22.504;2023-05-10T10:59:10;3.47;;;1.13;;
32946;SDS011;54465;51.230;22.504;2023-05-10T11:09:14;2.33;;;1.10;;
32946;SDS011;54465;51.230;22.504;2023-05-10T11:14:15;4.00;;;1.77;;
32946;SDS011;54465;51.230;22.504;2023-05-10T11:19:20;5.05;;;1.20;;
32946;SDS011;54465;51.230;22.504;2023-05-10T11:24:21;7.53;;;1.15;;
32946;SDS011;54465;51.230;22.504;2023-05-10T11:29:23;2.95;;;1.20;;
32946;SDS011;54465;51.230;22.504;2023-05-10T11:39:30;5.93;;;1.27;;
32946;SDS011;54465;51.230;22.504;2023-05-10T11:44:32;3.83;;;1.48;;
32946;SDS011;54465;51.230;22.504;2023-05-10T11:49:32;2.70;;;1.05;;
32946;SDS011;54465;51.230;22.504;2023-05-10T11:54:33;3.33;;;0.82;;
32946;SDS011;54465;51.230;22.504;2023-05-10T11:59:35;1.45;;;1.00;;
32946;SDS011;54465;51.230;22.504;2023-05-10T12:04:36;5.57;;;1.35;;
32946;SDS011;54465;51.230;22.504;2023-05-10T12:09:37;1.73;;;1.13;;
32946;SDS011;54465;51.230;22.504;2023-05-10T12:14:48;1.33;;;1.13;;
32946;SDS011;54465;51.230;22.504;2023-05-10T12:19:50;1.73;;;1.05;;
32946;SDS011;54465;51.230;22.504;2023-05-10T12:24:50;1.10;;;1.00;;
32946;SDS011;54465;51.230;22.504;2023-05-10T12:29:51;2.78;;;1.10;;
32946;SDS011;54465;51.230;22.504;2023-05-10T12:34:52;1.88;;;1.02;;
32946;SDS011;54465;51.230;22.504;2023-05-10T12:39:53;3.90;;;1.10;;
32946;SDS011;54465;51.230;22.504;2023-05-10T12:44:56;5.40;;;1.02;;
32946;SDS011;54465;51.230;22.504;2023-05-10T12:49:57;2.85;;;0.80;;
32946;SDS011;54465;51.230;22.504;2023-05-10T12:54:58;3.83;;;1.10;;
32946;SDS011;54465;51.230;22.504;2023-05-10T13:00:00;2.88;;;1.10;;
32946;SDS011;54465;51.230;22.504;2023-05-10T13:05:00;4.07;;;1.10;;
32946;SDS011;54465;51.230;22.504;2023-05-10T13:10:01;4.93;;;1.30;;
32946;SDS011;54465;51.230;22.504;2023-05-10T13:15:02;2.92;;;1.00;;
32946;SDS011;54465;51.230;22.504;2023-05-10T13:20:04;2.10;;;1.10;;
32946;SDS011;54465;51.230;22.504;2023-05-10T13:25:05;2.80;;;1.00;;
32946;SDS011;54465;51.230;22.504;2023-05-10T13:30:09;5.55;;;1.80;;
32946;SDS011;54465;51.230;22.504;2023-05-10T13:35:11;2.88;;;1.13;;
32946;SDS011;54465;51.230;22.504;2023-05-10T13:40:12;4.50;;;2.35;;
32946;SDS011;54465;51.230;22.504;2023-05-10T13:45:13;2.33;;;1.00;;
32946;SDS011;54465;51.230;22.504;2023-05-10T13:50:14;3.35;;;1.10;;
32946;SDS011;54465;51.230;22.504;2023-05-10T14:01:30;2.30;;;1.15;;
32946;SDS011;54465;51.230;22.504;2023-05-10T14:06:31;5.45;;;1.27;;
32946;SDS011;54465;51.230;22.504;2023-05-10T14:11:32;2.20;;;1.20;;
32946;SDS011;54465;51.230;22.504;2023-05-10T14:16:32;3.00;;;1.08;;
32946;SDS011;54465;51.230;22.504;2023-05-10T14:21:33;2.15;;;1.30;;
32946;SDS011;54465;51.230;22.504;2023-05-10T14:26:33;1.90;;;1.40;;
32946;SDS011;54465;51.230;22.504;2023-05-10T14:31:34;3.88;;;1.05;;
32946;SDS011;54465;51.230;22.504;2023-05-10T14:36:35;8.48;;;2.60;;
32946;SDS011;54465;51.230;22.504;2023-05-10T14:41:35;5.45;;;2.00;;
32946;SDS011;54465;51.230;22.504;2023-05-10T14:46:36;4.55;;;1.48;;
32946;SDS011;54465;51.230;22.504;2023-05-10T14:51:37;2.13;;;1.13;;
32946;SDS011;54465;51.230;22.504;2023-05-10T14:56:37;2.63;;;1.30;;
32946;SDS011;54465;51.230;22.504;2023-05-10T15:01:38;1.50;;;1.30;;
32946;SDS011;54465;51.230;22.504;2023-05-10T15:06:41;2.63;;;1.02;;
32946;SDS011;54465;51.230;22.504;2023-05-10T15:11:42;4.68;;;1.38;;
32946;SDS011;54465;51.230;22.504;2023-05-10T15:16:43;2.75;;;0.98;;
32946;SDS011;54465;51.230;22.504;2023-05-10T15:21:43;2.63;;;0.90;;
32946;SDS011;54465;51.230;22.504;2023-05-10T15:26:44;2.92;;;1.50;;
32946;SDS011;54465;51.230;22.504;2023-05-10T15:31:46;2.53;;;1.15;;
32946;SDS011;54465;51.230;22.504;2023-05-10T15:36:49;2.03;;;1.00;;
32946;SDS011;54465;51.230;22.504;2023-05-10T15:41:50;2.97;;;1.10;;
32946;SDS011;54465;51.230;22.504;2023-05-10T15:46:51;3.25;;;1.00;;
32946;SDS011;54465;51.230;22.504;2023-05-10T15:51:51;5.10;;;1.10;;
32946;SDS011;54465;51.230;22.504;2023-05-10T15:56:52;3.22;;;1.27;;
32946;SDS011;54465;51.230;22.504;2023-05-10T16:01:56;2.05;;;1.05;;
32946;SDS011;54465;51.230;22.504;2023-05-10T16:06:56;1.58;;;1.02;;
32946;SDS011;54465;51.230;22.504;2023-05-10T16:11:57;2.42;;;1.05;;
32946;SDS011;54465;51.230;22.504;2023-05-10T16:16:57;2.72;;;1.00;;
32946;SDS011;54465;51.230;22.504;2023-05-10T16:21:58;3.47;;;1.08;;
32946;SDS011;54465;51.230;22.504;2023-05-10T16:26:58;1.75;;;1.10;;
32946;SDS011;54465;51.230;22.504;2023-05-10T16:31:59;2.80;;;1.65;;
32946;SDS011;54465;51.230;22.504;2023-05-10T16:37:00;2.33;;;1.00;;
32946;SDS011;54465;51.230;22.504;2023-05-10T16:42:01;2.97;;;1.25;;
32946;SDS011;54465;51.230;22.504;2023-05-10T16:47:01;5.55;;;1.00;;
32946;SDS011;54465;51.230;22.504;2023-05-10T16:52:02;1.98;;;1.05;;
32946;SDS011;54465;51.230;22.504;2023-05-10T16:57:03;2.10;;;0.95;;
32946;SDS011;54465;51.230;22.504;2023-05-10T17:02:03;2.35;;;1.13;;
32946;SDS011;54465;51.230;22.504;2023-05-10T17:07:04;3.65;;;1.08;;
32946;SDS011;54465;51.230;22.504;2023-05-10T17:12:04;3.42;;;1.30;;
32946;SDS011;54465;51.230;22.504;2023-05-10T17:17:05;2.05;;;1.02;;
32946;SDS011;54465;51.230;22.504;2023-05-10T17:22:06;1.52;;;1.10;;
32946;SDS011;54465;51.230;22.504;2023-05-10T17:27:06;4.15;;;1.42;;
32946;SDS011;54465;51.230;22.504;2023-05-10T17:32:07;3.45;;;1.25;;
32946;SDS011;54465;51.230;22.504;2023-05-10T17:37:10;10.63;;;1.75;;
32946;SDS011;54465;51.230;22.504;2023-05-10T17:42:11;1.75;;;1.23;;
32946;SDS011;54465;51.230;22.504;2023-05-10T17:47:11;2.58;;;1.40;;
32946;SDS011;54465;51.230;22.504;2023-05-10T17:52:12;2.28;;;1.25;;
32946;SDS011;54465;51.230;22.504;2023-05-10T17:57:12;3.95;;;1.10;;
32946;SDS011;54465;51.230;22.504;2023-05-10T18:02:13;10.32;;;1.48;;
32946;SDS011;54465;51.230;22.504;2023-05-10T18:07:13;2.10;;;1.55;;
32946;SDS011;54465;51.230;22.504;2023-05-10T18:12:14;3.90;;;1.60;;
32946;SDS011;54465;51.230;22.504;2023-05-10T18:17:15;3.30;;;1.90;;
32946;SDS011;54465;51.230;22.504;2023-05-10T18:22:15;2.70;;;1.85;;
32946;SDS011;54465;51.230;22.504;2023-05-10T18:27:16;3.83;;;2.08;;
32946;SDS011;54465;51.230;22.504;2023-05-10T18:32:16;3.53;;;1.73;;
32946;SDS011;54465;51.230;22.504;2023-05-10T18:37:17;2.72;;;1.70;;
32946;SDS011;54465;51.230;22.504;2023-05-10T18:42:17;4.85;;;1.60;;
32946;SDS011;54465;51.230;22.504;2023-05-10T18:47:19;3.22;;;2.15;;
32946;SDS011;54465;51.230;22.504;2023-05-10T18:52:20;3.10;;;1.98;;
32946;SDS011;54465;51.230;22.504;2023-05-10T18:57:20;6.90;;;2.10;;
32946;SDS011;54465;51.230;22.504;2023-05-10T19:02:21;5.13;;;2.53;;
32946;SDS011;54465;51.230;22.504;2023-05-10T19:07:24;3.90;;;2.25;;
32946;SDS011;54465;51.230;22.504;2023-05-10T19:12:24;2.67;;;2.40;;
32946;SDS011;54465;51.230;22.504;2023-05-10T19:17:25;4.38;;;2.45;;
32946;SDS011;54465;51.230;22.504;2023-05-10T19:22:25;5.65;;;3.05;;
32946;SDS011;54465;51.230;22.504;2023-05-10T19:27:26;5.65;;;3.22;;
32946;SDS011;54465;51.230;22.504;2023-05-10T19:32:26;5.38;;;2.55;;
32946;SDS011;54465;51.230;22.504;2023-05-10T19:37:28;5.72;;;3.00;;
32946;SDS011;54465;51.230;22.504;2023-05-10T19:42:28;6.53;;;2.90;;
32946;SDS011;54465;51.230;22.504;2023-05-10T19:47:28;7.35;;;3.75;;
32946;SDS011;54465;51.230;22.504;2023-05-10T19:52:29;6.20;;;3.70;;
32946;SDS011;54465;51.230;22.504;2023-05-10T19:57:30;7.18;;;3.60;;
32946;SDS011;54465;51.230;22.504;2023-05-10T20:02:30;7.57;;;3.75;;
32946;SDS011;54465;51.230;22.504;2023-05-10T20:07:31;7.35;;;3.15;;
32946;SDS011;54465;51.230;22.504;2023-05-10T20:12:31;6.30;;;3.40;;
32946;SDS011;54465;51.230;22.504;2023-05-10T20:17:32;4.88;;;3.15;;
32946;SDS011;54465;51.230;22.504;2023-05-10T20:22:32;7.65;;;3.55;;
32946;SDS011;54465;51.230;22.504;2023-05-10T20:27:33;5.53;;;3.65;;
32946;SDS011;54465;51.230;22.504;2023-05-10T20:32:33;6.57;;;3.45;;
32946;SDS011;54465;51.230;22.504;2023-05-10T20:37:34;5.97;;;3.92;;
32946;SDS011;54465;51.230;22.504;2023-05-10T20:42:35;6.03;;;3.13;;
32946;SDS011;54465;51.230;22.504;2023-05-10T20:47:35;8.00;;;4.15;;
32946;SDS011;54465;51.230;22.504;2023-05-10T20:52:36;5.40;;;2.90;;
32946;SDS011;54465;51.230;22.504;2023-05-10T20:57:36;5.65;;;3.78;;
32946;SDS011;54465;51.230;22.504;2023-05-10T21:02:37;7.15;;;3.45;;
32946;SDS011;54465;51.230;22.504;2023-05-10T21:07:37;5.07;;;3.28;;
32946;SDS011;54465;51.230;22.504;2023-05-10T21:12:40;7.75;;;3.42;;
32946;SDS011;54465;51.230;22.504;2023-05-10T21:17:43;4.10;;;2.97;;
32946;SDS011;54465;51.230;22.504;2023-05-10T21:22:44;6.82;;;3.05;;
32946;SDS011;54465;51.230;22.504;2023-05-10T21:27:44;5.50;;;3.13;;
32946;SDS011;54465;51.230;22.504;2023-05-10T21:32:45;7.78;;;3.10;;
32946;SDS011;54465;51.230;22.504;2023-05-10T21:37:45;5.95;;;3.10;;
32946;SDS011;54465;51.230;22.504;2023-05-10T21:42:46;6.95;;;3.28;;
32946;SDS011;54465;51.230;22.504;2023-05-10T21:47:49;6.07;;;2.58;;
32946;SDS011;54465;51.230;22.504;2023-05-10T21:52:50;6.00;;;2.70;;
32946;SDS011;54465;51.230;22.504;2023-05-10T21:57:50;4.32;;;3.00;;
32946;SDS011;54465;51.230;22.504;2023-05-10T22:02:51;6.43;;;3.17;;
32946;SDS011;54465;51.230;22.504;2023-05-10T22:07:51;6.07;;;2.80;;
32946;SDS011;54465;51.230;22.504;2023-05-10T22:12:52;3.47;;;2.83;;
32946;SDS011;54465;51.230;22.504;2023-05-10T22:17:52;5.07;;;2.65;;
32946;SDS011;54465;51.230;22.504;2023-05-10T22:22:53;6.03;;;2.70;;
32946;SDS011;54465;51.230;22.504;2023-05-10T22:27:54;4.40;;;2.28;;
32946;SDS011;54465;51.230;22.504;2023-05-10T22:32:55;3.95;;;2.78;;
32946;SDS011;54465;51.230;22.504;2023-05-10T22:37:57;4.07;;;2.28;;
32946;SDS011;54465;51.230;22.504;2023-05-10T22:42:58;3.58;;;2.67;;
32946;SDS011;54465;51.230;22.504;2023-05-10T22:47:58;5.50;;;2.25;;
32946;SDS011;54465;51.230;22.504;2023-05-10T22:52:59;5.68;;;2.60;;
32946;SDS011;54465;51.230;22.504;2023-05-10T22:57:59;4.90;;;2.60;;
32946;SDS011;54465;51.230;22.504;2023-05-10T23:03:00;4.05;;;2.58;;
32946;SDS011;54465;51.230;22.504;2023-05-10T23:08:01;5.22;;;2.35;;
32946;SDS011;54465;51.230;22.504;2023-05-10T23:13:01;5.88;;;2.30;;
32946;SDS011;54465;51.230;22.504;2023-05-10T23:18:02;3.20;;;2.38;;
32946;SDS011;54465;51.230;22.504;2023-05-10T23:23:03;3.42;;;2.47;;
32946;SDS011;54465;51.230;22.504;2023-05-10T23:28:04;4.38;;;2.50;;
32946;SDS011;54465;51.230;22.504;2023-05-10T23:33:04;4.45;;;2.45;;
32946;SDS011;54465;51.230;22.504;2023-05-10T23:38:05;3.88;;;3.00;;
32946;SDS011;54465;51.230;22.504;2023-05-10T23:43:06;2.92;;;2.35;;
32946;SDS011;54465;51.230;22.504;2023-05-10T23:48:06;4.50;;;2.60;;
32946;SDS011;54465;51.230;22.504;2023-05-10T23:53:07;4.05;;;2.65;;
32946;SDS011;54465;51.230;22.504;2023-05-10T23:58:08;5.00;;;2.28;;
